Time;durP1;ratioP1;P1;durP2;ratioP2;P2;SDS_P1;SDS_P2;PMS_P1;PMS_P2;Temp;Humidity;BMP_temperature;BMP_pressure;BME280_temperature;BME280_humidity;BME280_pressure;Samples;Min_cycle;Max_cycle;Signal;HPM_P1;HPM_P2
2022/09/22 00:01:06;;;;;;;2.10;1.90;;;24.60;54.60;;;;;;5028862;28;20033;-67
2022/09/22 00:03:40;;;;;;;3.03;2.00;;;24.50;54.60;;;;;;5026698;28;20056;-67
2022/09/22 00:06:09;;;;;;;2.22;1.90;;;24.50;54.60;;;;;;5025526;28;20038;-67
2022/09/22 00:08:37;;;;;;;3.33;2.17;;;24.60;54.50;;;;;;5018476;28;20451;-67
2022/09/22 00:11:15;;;;;;;3.67;2.00;;;24.50;54.60;;;;;;5014055;28;20041;-67
2022/09/22 00:14:09;;;;;;;3.42;2.63;;;24.50;54.60;;;;;;5010712;28;20049;-67
2022/09/22 00:16:47;;;;;;;2.22;2.03;;;24.50;54.70;;;;;;4974414;28;20035;-67
2022/09/22 00:19:24;;;;;;;2.65;2.22;;;24.50;54.70;;;;;;4976241;28;20038;-67
2022/09/22 00:21:51;;;;;;;2.38;2.08;;;24.40;54.70;;;;;;4985495;28;20038;-67
2022/09/22 00:24:21;;;;;;;3.60;2.30;;;24.30;54.80;;;;;;4990459;28;20137;-67
2022/09/22 00:26:48;;;;;;;1.90;1.80;;;24.40;54.90;;;;;;4991981;28;20508;-67
2022/09/22 00:29:16;;;;;;;2.08;1.70;;;24.40;54.90;;;;;;4971615;28;20045;-67
2022/09/22 00:31:43;;;;;;;3.35;2.20;;;24.40;54.80;;;;;;4961115;28;20682;-67
2022/09/22 00:34:17;;;;;;;2.85;2.00;;;24.50;55.00;;;;;;4976421;28;20109;-67
2022/09/22 00:36:43;;;;;;;2.38;1.52;;;24.40;54.90;;;;;;4970917;28;20035;-67
2022/09/22 00:39:10;;;;;;;2.85;1.90;;;24.50;55.00;;;;;;4978313;28;20484;-67
2022/09/22 00:41:40;;;;;;;2.42;2.20;;;24.50;55.00;;;;;;4979483;28;20053;-67
2022/09/22 00:44:25;;;;;;;3.47;2.50;;;24.40;54.90;;;;;;4974036;28;20054;-67
2022/09/22 00:46:57;;;;;;;2.33;1.80;;;24.50;55.00;;;;;;4989673;28;20051;-66
2022/09/22 00:49:36;;;;;;;2.05;1.75;;;24.50;55.00;;;;;;4956374;28;20046;-67
2022/09/22 00:52:03;;;;;;;2.78;2.03;;;24.50;55.00;;;;;;4982234;28;20486;-67
2022/09/22 00:54:30;;;;;;;3.17;2.03;;;24.50;54.90;;;;;;5046538;28;20434;-67
2022/09/22 00:57:04;;;;;;;2.42;2.00;;;24.40;54.80;;;;;;5033630;28;20025;-67
2022/09/22 00:59:31;;;;;;;2.15;1.77;;;24.50;54.90;;;;;;5031437;28;20040;-67
2022/09/22 01:01:57;;;;;;;1.92;1.83;;;24.40;54.80;;;;;;5029328;28;20049;-67
2022/09/22 01:04:23;;;;;;;3.10;1.98;;;24.40;54.80;;;;;;5025970;28;20482;-67
2022/09/22 01:06:50;;;;;;;2.20;2.00;;;24.30;54.90;;;;;;5017927;28;20034;-67
2022/09/22 01:09:17;;;;;;;2.38;1.92;;;24.40;54.80;;;;;;5010957;28;20037;-67
2022/09/22 01:11:43;;;;;;;2.90;2.15;;;24.40;54.90;;;;;;5013203;28;20690;-68
2022/09/22 01:14:18;;;;;;;2.08;1.88;;;24.40;54.90;;;;;;5015358;28;20092;-67
2022/09/22 01:17:03;;;;;;;2.05;1.85;;;24.40;55.00;;;;;;5028018;28;20108;-67
2022/09/22 01:19:54;;;;;;;3.38;1.80;;;24.40;55.00;;;;;;5019378;28;20386;-66
2022/09/22 01:22:41;;;;;;;2.38;1.65;;;24.40;55.00;;;;;;4999137;28;20064;-67
2022/09/22 01:25:22;;;;;;;4.53;1.98;;;24.30;55.10;;;;;;5027524;28;20336;-65
2022/09/22 01:28:21;;;;;;;3.72;2.45;;;24.40;55.10;;;;;;5020959;28;20037;-68
2022/09/22 01:30:53;;;;;;;2.97;2.30;;;24.40;55.10;;;;;;5019292;28;20033;-67
2022/09/22 01:33:31;;;;;;;2.80;2.33;;;24.20;55.00;;;;;;5013121;28;20120;-67
2022/09/22 01:36:09;;;;;;;2.38;2.17;;;24.40;55.00;;;;;;5026101;28;20034;-67
2022/09/22 01:38:48;;;;;;;2.42;2.03;;;24.20;55.00;;;;;;4993266;28;20364;-67
2022/09/22 01:41:20;;;;;;;3.75;2.15;;;24.20;55.10;;;;;;5011618;28;20087;-67
2022/09/22 01:43:55;;;;;;;2.50;1.85;;;24.20;55.20;;;;;;5019591;28;20025;-67
2022/09/22 01:46:26;;;;;;;2.65;2.13;;;24.30;55.20;;;;;;5020613;28;20367;-67
2022/09/22 01:48:55;;;;;;;5.00;2.28;;;24.30;55.30;;;;;;5016426;28;20036;-67
2022/09/22 01:51:29;;;;;;;2.63;2.38;;;24.40;55.30;;;;;;5025142;28;20443;-67
2022/09/22 01:54:17;;;;;;;3.10;2.00;;;24.40;55.30;;;;;;5044900;28;20136;-65
2022/09/22 01:56:48;;;;;;;2.38;2.17;;;24.30;55.30;;;;;;5019024;28;20034;-67
2022/09/22 01:59:19;;;;;;;2.45;2.15;;;24.40;55.30;;;;;;5013720;28;20048;-66
2022/09/22 02:01:53;;;;;;;8.55;3.08;;;24.30;55.20;;;;;;5019378;28;20053;-66
2022/09/22 02:04:34;;;;;;;3.83;2.60;;;24.30;55.30;;;;;;5028712;28;20041;-67
2022/09/22 02:07:10;;;;;;;2.72;2.20;;;24.40;55.30;;;;;;5014274;28;20053;-67
2022/09/22 02:09:40;;;;;;;5.40;2.20;;;24.40;55.20;;;;;;4992362;28;20038;-68
2022/09/22 02:12:06;;;;;;;4.20;2.50;;;24.40;55.20;;;;;;4990421;28;20099;-67
2022/09/22 02:14:32;;;;;;;3.13;2.33;;;24.50;55.30;;;;;;5012234;28;20036;-67
2022/09/22 02:16:59;;;;;;;2.10;1.90;;;24.60;55.30;;;;;;5015334;28;20503;-67
2022/09/22 02:19:35;;;;;;;2.63;2.13;;;24.50;55.20;;;;;;5021348;28;20045;-67
2022/09/22 02:22:01;;;;;;;2.13;1.92;;;24.50;55.30;;;;;;5020016;28;20040;-67
2022/09/22 02:24:40;;;;;;;1.90;1.70;;;24.40;55.10;;;;;;5012098;28;20101;-67
2022/09/22 02:27:24;;;;;;;2.20;1.75;;;24.60;55.20;;;;;;5011191;28;20045;-67
2022/09/22 02:29:57;;;;;;;2.30;2.03;;;24.50;55.20;;;;;;5010972;28;20045;-67
2022/09/22 02:32:24;;;;;;;2.75;2.15;;;24.60;55.10;;;;;;5026692;28;20146;-68
2022/09/22 02:34:54;;;;;;;2.72;2.10;;;24.60;55.00;;;;;;5028870;28;20455;-67
2022/09/22 02:37:39;;;;;;;3.08;2.10;;;24.50;55.00;;;;;;5015545;28;20026;-67
2022/09/22 02:40:14;;;;;;;2.13;1.75;;;24.60;55.00;;;;;;5010662;28;20046;-67
2022/09/22 02:42:46;;;;;;;2.22;2.00;;;24.70;55.10;;;;;;5011300;28;20038;-68
2022/09/22 02:45:12;;;;;;;2.47;2.28;;;24.50;55.00;;;;;;5019890;28;20065;-67
2022/09/22 02:47:56;;;;;;;2.33;2.10;;;24.60;54.90;;;;;;5016440;28;20085;-67
2022/09/22 02:50:25;;;;;;;2.05;1.73;;;24.70;55.00;;;;;;5011984;28;20041;-67
2022/09/22 02:52:55;;;;;;;2.47;1.70;;;24.70;55.00;;;;;;5021654;28;20036;-67
2022/09/22 02:55:21;;;;;;;2.35;1.70;;;24.70;54.90;;;;;;5030365;28;20037;-67
2022/09/22 02:57:47;;;;;;;2.53;2.00;;;24.60;54.80;;;;;;5017224;28;20038;-67
2022/09/22 03:00:14;;;;;;;2.92;1.98;;;24.70;54.90;;;;;;5012464;28;20457;-67
2022/09/22 03:02:39;;;;;;;3.33;2.17;;;24.60;54.80;;;;;;5019671;28;20052;-67
2022/09/22 03:05:06;;;;;;;3.95;2.08;;;24.60;54.90;;;;;;5024963;28;20042;-67
2022/09/22 03:07:32;;;;;;;3.42;2.20;;;24.60;54.90;;;;;;5021475;28;20068;-67
2022/09/22 03:09:58;;;;;;;4.25;2.17;;;24.60;54.90;;;;;;5011109;28;20045;-67
2022/09/22 03:12:24;;;;;;;4.43;2.33;;;24.50;55.00;;;;;;5028939;28;20528;-67
2022/09/22 03:14:50;;;;;;;3.75;2.10;;;24.50;55.10;;;;;;5029151;28;20564;-67
2022/09/22 03:17:16;;;;;;;3.10;1.92;;;24.50;55.10;;;;;;5012460;28;20046;-67
2022/09/22 03:19:42;;;;;;;5.30;2.40;;;24.50;55.20;;;;;;5019739;28;20451;-67
2022/09/22 03:22:08;;;;;;;2.83;1.90;;;24.50;55.20;;;;;;5020619;28;20060;-67
2022/09/22 03:24:34;;;;;;;3.20;2.10;;;24.50;55.10;;;;;;5031107;28;20150;-67
2022/09/22 03:27:00;;;;;;;3.60;2.33;;;24.50;55.10;;;;;;5016160;28;20474;-68
2022/09/22 03:29:26;;;;;;;7.03;2.15;;;24.60;55.10;;;;;;5012529;28;20046;-67
2022/09/22 03:31:52;;;;;;;2.45;2.25;;;24.60;55.00;;;;;;5027584;28;20155;-67
2022/09/22 03:34:18;;;;;;;2.58;2.35;;;24.60;54.70;;;;;;5032412;28;20509;-67
2022/09/22 03:36:44;;;;;;;3.35;2.38;;;24.80;54.60;;;;;;5018063;28;20065;-67
2022/09/22 03:39:10;;;;;;;4.63;2.55;;;24.80;54.50;;;;;;5035101;28;20117;-67
2022/09/22 03:41:36;;;;;;;2.40;2.20;;;24.80;54.40;;;;;;5034751;28;20057;-67
2022/09/22 03:44:03;;;;;;;2.95;2.42;;;24.90;54.30;;;;;;5031004;28;20076;-67
2022/09/22 03:46:29;;;;;;;2.95;2.65;;;24.80;54.30;;;;;;5024631;28;20065;-67
2022/09/22 03:48:55;;;;;;;2.85;2.42;;;24.70;54.50;;;;;;5030129;28;20076;-67
2022/09/22 03:51:22;;;;;;;2.40;2.20;;;24.80;54.60;;;;;;5026955;28;20064;-67
2022/09/22 03:53:48;;;;;;;2.97;2.40;;;24.50;54.70;;;;;;5026606;28;20045;-67
2022/09/22 03:56:15;;;;;;;2.63;2.42;;;24.60;55.00;;;;;;4996124;28;20034;-67
2022/09/22 03:58:42;;;;;;;2.75;2.55;;;24.60;55.10;;;;;;5026966;28;20118;-67
2022/09/22 04:01:10;;;;;;;2.95;2.67;;;24.60;55.30;;;;;;5029848;28;20121;-67
2022/09/22 04:03:36;;;;;;;4.68;2.35;;;24.40;55.30;;;;;;5030566;28;20459;-67
2022/09/22 04:06:04;;;;;;;3.40;2.60;;;24.40;55.30;;;;;;5017526;28;20037;-67
2022/09/22 04:08:30;;;;;;;2.85;2.50;;;24.40;55.40;;;;;;5024594;28;20764;-67
2022/09/22 04:10:56;;;;;;;3.17;2.60;;;24.40;55.40;;;;;;5031245;28;20037;-68
2022/09/22 04:13:22;;;;;;;3.08;2.75;;;24.40;55.30;;;;;;5034181;28;20095;-66
2022/09/22 04:15:48;;;;;;;3.13;2.78;;;24.30;55.40;;;;;;5017375;28;20471;-68
2022/09/22 04:18:15;;;;;;;2.53;2.25;;;24.40;55.30;;;;;;5031278;28;20026;-68
2022/09/22 04:20:42;;;;;;;2.85;2.50;;;24.30;55.10;;;;;;5031087;28;20056;-67
2022/09/22 04:23:09;;;;;;;3.72;2.60;;;24.40;55.10;;;;;;5019910;28;20044;-67
2022/09/22 04:25:36;;;;;;;3.03;2.00;;;24.40;55.10;;;;;;5012067;28;20120;-67
2022/09/22 04:28:05;;;;;;;2.65;2.15;;;24.50;55.00;;;;;;5014069;28;20049;-68
2022/09/22 04:30:32;;;;;;;4.85;3.13;;;24.50;54.70;;;;;;5025674;28;20034;-67
2022/09/22 04:32:58;;;;;;;3.92;2.35;;;24.50;54.50;;;;;;5020788;28;20029;-68
2022/09/22 04:35:27;;;;;;;3.08;2.40;;;24.60;54.40;;;;;;5030125;28;20033;-67
2022/09/22 04:37:54;;;;;;;3.72;2.30;;;24.60;54.20;;;;;;5026108;28;20041;-67
2022/09/22 04:40:21;;;;;;;3.05;2.72;;;24.70;54.00;;;;;;5018007;28;20120;-67
2022/09/22 04:42:47;;;;;;;3.15;2.75;;;24.80;54.10;;;;;;5012845;28;20044;-68
2022/09/22 04:45:13;;;;;;;2.97;2.55;;;24.70;54.30;;;;;;5022537;28;20646;-67
2022/09/22 04:47:40;;;;;;;2.58;2.38;;;24.60;54.40;;;;;;5022659;28;20034;-67
2022/09/22 04:50:06;;;;;;;3.17;2.72;;;24.60;54.50;;;;;;5018676;28;20022;-68
2022/09/22 04:52:32;;;;;;;5.57;2.90;;;24.70;54.50;;;;;;5009812;28;20034;-67
2022/09/22 04:54:58;;;;;;;2.90;2.60;;;24.70;54.50;;;;;;5030945;28;20032;-67
2022/09/22 04:57:24;;;;;;;4.20;2.35;;;24.70;54.50;;;;;;5026096;28;20045;-67
2022/09/22 04:59:50;;;;;;;2.30;2.10;;;24.80;54.50;;;;;;5014290;28;20030;-67
2022/09/22 05:02:16;;;;;;;4.40;2.53;;;24.80;54.40;;;;;;5007057;28;20061;-67
2022/09/22 05:04:42;;;;;;;2.95;2.45;;;24.80;54.30;;;;;;5022578;28;20072;-67
2022/09/22 05:07:08;;;;;;;6.25;2.60;;;24.60;54.10;;;;;;5009485;28;20026;-67
2022/09/22 05:09:34;;;;;;;4.70;2.63;;;24.80;54.00;;;;;;5016182;28;20037;-67
2022/09/22 05:12:01;;;;;;;3.67;2.30;;;24.80;54.20;;;;;;5032890;28;20040;-67
2022/09/22 05:14:28;;;;;;;2.35;2.08;;;24.70;54.20;;;;;;5013808;28;20053;-67
2022/09/22 05:16:54;;;;;;;2.72;2.53;;;24.70;54.40;;;;;;5031153;28;20033;-67
2022/09/22 05:19:20;;;;;;;3.28;2.53;;;24.80;54.30;;;;;;5014057;28;20021;-68
2022/09/22 05:21:46;;;;;;;3.47;2.60;;;24.60;54.30;;;;;;5011216;28;20038;-67
2022/09/22 05:24:12;;;;;;;3.03;2.30;;;24.60;54.40;;;;;;5004802;28;20054;-67
2022/09/22 05:26:38;;;;;;;3.35;3.00;;;24.60;54.50;;;;;;5026620;28;20493;-66
2022/09/22 05:29:05;;;;;;;2.70;2.50;;;24.60;54.60;;;;;;5022441;28;20033;-68
2022/09/22 05:31:31;;;;;;;3.65;2.40;;;24.60;54.50;;;;;;5008008;28;20033;-68
2022/09/22 05:33:57;;;;;;;2.55;1.70;;;24.60;54.40;;;;;;5025165;28;20021;-68
2022/09/22 05:36:23;;;;;;;2.33;1.45;;;24.60;51.10;;;;;;5001730;28;20026;-69
2022/09/22 05:38:50;;;;;;;1.48;1.38;;;24.70;50.40;;;;;;5010271;28;20064;-67
2022/09/22 05:41:16;;;;;;;1.60;1.25;;;24.60;50.50;;;;;;5021457;28;20051;-68
2022/09/22 05:43:42;;;;;;;2.20;1.98;;;24.60;49.30;;;;;;5031687;28;20045;-67
2022/09/22 05:46:08;;;;;;;2.80;2.28;;;24.80;49.80;;;;;;5031485;28;20041;-68
2022/09/22 05:48:34;;;;;;;1.83;1.70;;;24.90;49.80;;;;;;5023272;28;20471;-74
2022/09/22 05:51:00;;;;;;;3.72;2.45;;;24.90;50.30;;;;;;5012546;28;20037;-73
2022/09/22 05:53:27;;;;;;;3.72;2.83;;;24.80;50.70;;;;;;5000054;28;20022;-75
2022/09/22 05:55:55;;;;;;;5.22;4.47;;;25.00;50.30;;;;;;4992061;28;20037;-74
2022/09/22 05:58:22;;;;;;;8.63;6.20;;;24.90;49.10;;;;;;5009650;28;20030;-73
2022/09/22 06:00:48;;;;;;;7.50;5.13;;;25.00;49.10;;;;;;5009639;28;20490;-74
2022/09/22 06:03:14;;;;;;;2.03;1.55;;;25.10;48.90;;;;;;5011750;28;20116;-74
2022/09/22 06:05:40;;;;;;;1.63;1.30;;;25.10;49.20;;;;;;5009264;28;20160;-79
2022/09/22 06:08:06;;;;;;;1.50;1.40;;;25.00;54.00;;;;;;5011026;28;20041;-70
2022/09/22 06:10:34;;;;;;;1.70;1.60;;;25.10;53.70;;;;;;5001536;28;20038;-69
2022/09/22 06:13:05;;;;;;;1.38;1.27;;;25.20;53.90;;;;;;4999071;28;20034;-70
2022/09/22 06:15:35;;;;;;;2.55;1.77;;;25.30;54.00;;;;;;5007102;28;20037;-71
2022/09/22 06:18:05;;;;;;;1.60;1.50;;;25.20;54.30;;;;;;5031819;28;20708;-73
2022/09/22 06:20:33;;;;;;;3.75;1.88;;;25.30;54.50;;;;;;5008489;28;20060;-72
2022/09/22 06:22:59;;;;;;;1.92;1.30;;;25.40;54.60;;;;;;5009974;28;20034;-72
2022/09/22 06:25:27;;;;;;;1.83;1.70;;;25.30;54.00;;;;;;5015776;28;20029;-72
2022/09/22 06:28:01;;;;;;;2.38;1.55;;;25.40;54.80;;;;;;5021651;28;20045;-72
2022/09/22 06:30:27;;;;;;;1.85;1.67;;;25.10;54.70;;;;;;5022460;28;20116;-73
2022/09/22 06:32:55;;;;;;;2.20;1.85;;;25.30;55.00;;;;;;5011100;28;20022;-73
2022/09/22 06:35:21;;;;;;;4.40;2.65;;;25.30;55.50;;;;;;5016625;28;20038;-73
2022/09/22 06:37:50;;;;;;;2.40;1.58;;;25.30;57.20;;;;;;5010571;28;20046;-72
2022/09/22 06:40:16;;;;;;;1.98;1.80;;;25.50;58.90;;;;;;4999918;28;20582;-72
2022/09/22 06:42:42;;;;;;;1.27;1.17;;;25.30;56.40;;;;;;5025703;28;20017;-74
2022/09/22 06:45:08;;;;;;;1.67;1.58;;;25.30;57.40;;;;;;5015522;28;21968;-76
2022/09/22 06:47:35;;;;;;;2.28;1.67;;;25.30;57.10;;;;;;5019185;28;20045;-73
2022/09/22 06:50:04;;;;;;;1.60;1.48;;;25.30;56.40;;;;;;5012109;28;20034;-73
2022/09/22 06:52:31;;;;;;;3.08;1.42;;;25.40;55.00;;;;;;5018048;28;20112;-72
2022/09/22 06:54:59;;;;;;;2.60;1.77;;;25.60;51.00;;;;;;5016289;28;20132;-73
2022/09/22 06:57:29;;;;;;;2.92;2.17;;;25.60;50.50;;;;;;5026637;28;20352;-74
2022/09/22 06:59:55;;;;;;;2.47;2.28;;;25.70;47.20;;;;;;5019705;28;20510;-72
2022/09/22 07:02:27;;;;;;;17.00;10.77;;;25.80;57.00;;;;;;5022799;28;20049;-72
2022/09/22 07:04:58;;;;;;;13.15;5.30;;;25.90;55.70;;;;;;5012984;28;20164;-72
2022/09/22 07:07:27;;;;;;;5.80;4.38;;;25.90;53.50;;;;;;5005314;28;20031;-69
2022/09/22 07:09:53;;;;;;;3.20;1.75;;;25.90;52.20;;;;;;4991959;28;20069;-72
2022/09/22 07:12:21;;;;;;;2.72;2.10;;;25.90;50.90;;;;;;5013723;28;20026;-71
2022/09/22 07:14:48;;;;;;;5.47;2.90;;;25.90;50.20;;;;;;5015960;28;20378;-70
2022/09/22 07:17:17;;;;;;;2.95;2.08;;;25.90;46.90;;;;;;5014167;28;20029;-71
2022/09/22 07:19:45;;;;;;;2.78;2.22;;;25.80;48.70;;;;;;5016058;28;20422;-72
2022/09/22 07:22:14;;;;;;;3.85;2.53;;;25.70;48.50;;;;;;5026256;28;20084;-71
2022/09/22 07:24:41;;;;;;;2.65;2.10;;;25.60;48.10;;;;;;5017751;28;20053;-70
2022/09/22 07:27:09;;;;;;;3.88;2.30;;;25.60;51.60;;;;;;5015100;28;20076;-70
2022/09/22 07:29:36;;;;;;;2.50;2.30;;;25.60;50.90;;;;;;5035244;28;20103;-71
2022/09/22 07:32:03;;;;;;;4.22;3.60;;;25.60;49.70;;;;;;5023610;28;20120;-70
2022/09/22 07:34:29;;;;;;;2.53;2.10;;;25.50;50.90;;;;;;5024348;28;20081;-70
2022/09/22 07:36:55;;;;;;;3.08;2.65;;;25.50;48.40;;;;;;5020538;28;20041;-72
2022/09/22 07:39:23;;;;;;;6.90;3.85;;;25.30;52.40;;;;;;5012172;28;20033;-72
2022/09/22 07:41:50;;;;;;;3.40;3.10;;;25.50;54.80;;;;;;5027489;28;20040;-72
2022/09/22 07:47:02;;;;;;;15.38;8.40;;;25.70;54.90;;;;;;5001782;28;20100;-72
2022/09/22 07:49:28;;;;;;;4.40;3.85;;;25.70;54.40;;;;;;5033765;28;20037;-72
2022/09/22 07:51:56;;;;;;;1.90;1.80;;;25.80;54.00;;;;;;5010639;28;20028;-75
2022/09/22 07:54:23;;;;;;;56.17;33.40;;;25.80;53.80;;;;;;5010818;28;20047;-74
2022/09/22 07:56:54;;;;;;;2.97;2.60;;;25.80;52.30;;;;;;5034925;28;20055;-73
2022/09/22 07:59:20;;;;;;;5.07;2.50;;;25.80;52.70;;;;;;4999505;28;20157;-70
2022/09/22 08:01:48;;;;;;;2.70;1.90;;;25.80;49.10;;;;;;5028795;28;20093;-70
2022/09/22 08:04:17;;;;;;;1.88;1.58;;;25.80;47.60;;;;;;5017051;28;20124;-71
2022/09/22 08:06:45;;;;;;;1.90;1.60;;;25.80;57.00;;;;;;5010796;28;20033;-70
2022/09/22 08:09:12;;;;;;;2.15;1.60;;;25.90;57.80;;;;;;5013285;28;20489;-71
2022/09/22 08:11:38;;;;;;;1.50;1.40;;;25.80;57.80;;;;;;5006652;28;20042;-71
2022/09/22 08:14:07;;;;;;;1.10;1.10;;;25.90;56.80;;;;;;5012579;28;20092;-71
2022/09/22 08:16:35;;;;;;;1.50;1.33;;;25.90;54.30;;;;;;5009836;28;20471;-71
2022/09/22 08:19:11;;;;;;;5.22;1.38;;;26.00;56.10;;;;;;5013090;28;20068;-71
2022/09/22 08:21:42;;;;;;;1.35;1.25;;;25.90;54.40;;;;;;5011203;28;20713;-74
2022/09/22 08:24:10;;;;;;;2.00;1.80;;;25.80;54.70;;;;;;5008497;28;20080;-72
2022/09/22 08:26:42;;;;;;;1.40;1.30;;;25.80;55.20;;;;;;5011217;28;20032;-74
2022/09/22 08:29:09;;;;;;;1.58;1.48;;;25.90;55.20;;;;;;5008561;28;20034;-73
2022/09/22 08:31:37;;;;;;;1.95;1.40;;;25.80;54.90;;;;;;5012706;28;20032;-74
2022/09/22 08:34:04;;;;;;;1.05;1.05;;;25.90;55.10;;;;;;5013779;28;20037;-74
2022/09/22 08:36:31;;;;;;;2.15;1.00;;;25.80;55.10;;;;;;5010672;28;20117;-71
2022/09/22 08:39:02;;;;;;;1.48;1.38;;;25.80;53.90;;;;;;5010484;28;20415;-70
2022/09/22 08:41:28;;;;;;;1.55;1.17;;;25.80;54.70;;;;;;5012588;28;20045;-71
2022/09/22 08:44:00;;;;;;;2.08;1.90;;;25.70;52.70;;;;;;5014134;28;20037;-71
2022/09/22 08:46:33;;;;;;;1.50;1.40;;;25.80;54.50;;;;;;5013366;28;20406;-71
2022/09/22 08:52:02;;;;;;;2.65;1.10;;;25.90;53.90;;;;;;4993605;28;20041;-76
2022/09/22 08:54:30;;;;;;;1.55;1.45;;;25.80;54.20;;;;;;5010697;28;20068;-75
2022/09/22 08:57:21;;;;;;;2.67;1.35;;;25.70;54.10;;;;;;5014010;28;20069;-72
2022/09/22 08:59:47;;;;;;;2.08;1.42;;;25.80;54.10;;;;;;5011738;28;20132;-70
2022/09/22 09:02:34;;;;;;;1.73;1.20;;;25.80;54.00;;;;;;5013316;28;20128;-72
2022/09/22 09:05:22;;;;;;;1.88;1.10;;;25.80;54.00;;;;;;5012707;28;20052;-72
2022/09/22 09:08:05;;;;;;;1.40;1.30;;;25.80;53.40;;;;;;4995185;28;20044;-74
2022/09/22 09:11:02;;;;;;;1.17;1.15;;;25.90;53.90;;;;;;5011978;28;20041;-74
2022/09/22 09:13:54;;;;;;;1.58;1.45;;;25.90;53.40;;;;;;4952286;28;20553;-73
2022/09/22 09:16:51;;;;;;;1.58;1.08;;;25.80;53.30;;;;;;4952900;29;20035;-73
2022/09/22 09:19:46;;;;;;;1.00;0.90;;;25.90;53.00;;;;;;4940840;28;20686;-73
2022/09/22 09:22:23;;;;;;;1.30;1.20;;;25.90;52.90;;;;;;4972021;28;20065;-73
2022/09/22 09:24:56;;;;;;;1.83;1.15;;;25.80;53.40;;;;;;4970764;28;20050;-73
2022/09/22 09:27:26;;;;;;;1.02;1.02;;;25.90;51.40;;;;;;4954952;28;20083;-73
2022/09/22 09:30:18;;;;;;;0.90;0.90;;;25.60;53.50;;;;;;4955371;28;20034;-73
2022/09/22 09:33:00;;;;;;;6.22;1.58;;;25.70;53.00;;;;;;4970779;28;20035;-73
2022/09/22 09:35:34;;;;;;;0.98;0.93;;;25.70;53.60;;;;;;4971633;28;20461;-73
2022/09/22 09:38:01;;;;;;;2.20;1.30;;;25.70;53.60;;;;;;4970263;28;20046;-73
2022/09/22 09:40:27;;;;;;;1.33;1.23;;;25.60;53.60;;;;;;4954358;28;20555;-73
2022/09/22 09:43:02;;;;;;;1.45;1.30;;;25.70;52.70;;;;;;4956699;28;20446;-73
2022/09/22 09:45:43;;;;;;;1.33;1.23;;;25.60;53.30;;;;;;4969814;28;20123;-73
2022/09/22 09:48:33;;;;;;;5.03;1.08;;;25.60;53.60;;;;;;4971385;28;20058;-73
2022/09/22 09:51:04;;;;;;;1.95;1.52;;;25.60;53.90;;;;;;4985695;28;20034;-73
2022/09/22 09:53:36;;;;;;;1.13;0.98;;;25.60;53.70;;;;;;5008711;28;20052;-75
2022/09/22 09:56:10;;;;;;;4.22;1.50;;;25.60;54.20;;;;;;5019065;28;20032;-73
2022/09/22 10:01:51;;;;;;;3.42;1.50;;;25.60;49.70;;;;;;5022261;28;20056;-73
2022/09/22 10:04:27;;;;;;;1.20;1.10;;;25.80;49.70;;;;;;5026686;28;20069;-73
2022/09/22 10:06:55;;;;;;;1.08;0.98;;;25.90;51.10;;;;;;5006241;28;20038;-71
2022/09/22 10:09:27;;;;;;;1.67;1.42;;;25.90;46.40;;;;;;5015556;28;20055;-69
2022/09/22 10:12:01;;;;;;;1.83;1.25;;;25.80;46.60;;;;;;5026561;28;20050;-71
2022/09/22 10:14:31;;;;;;;1.92;1.20;;;25.80;46.50;;;;;;5013674;28;20120;-71
2022/09/22 10:16:58;;;;;;;1.50;1.00;;;25.80;47.30;;;;;;5016878;28;20128;-68
2022/09/22 10:19:24;;;;;;;1.52;1.30;;;25.70;47.10;;;;;;5023281;28;20037;-70
2022/09/22 10:21:50;;;;;;;1.77;1.42;;;25.90;49.30;;;;;;5024543;28;20030;-70
2022/09/22 10:24:30;;;;;;;1.27;1.02;;;26.00;50.80;;;;;;5015507;28;20042;-69
2022/09/22 10:26:56;;;;;;;3.65;1.45;;;26.30;50.90;;;;;;5016499;28;20482;-70
2022/09/22 10:29:24;;;;;;;1.00;1.00;;;26.40;49.20;;;;;;5040942;28;20087;-69
2022/09/22 10:32:09;;;;;;;2.25;1.10;;;26.30;48.30;;;;;;5010743;28;20030;-71
2022/09/22 10:34:37;;;;;;;1.30;1.00;;;26.50;48.20;;;;;;4995005;28;20061;-72
2022/09/22 10:37:09;;;;;;;2.65;1.50;;;26.20;47.30;;;;;;5012642;28;20394;-71
2022/09/22 10:39:39;;;;;;;0.90;0.85;;;26.20;48.50;;;;;;5008074;28;20026;-70
2022/09/22 10:42:17;;;;;;;5.30;1.23;;;26.20;46.70;;;;;;5012503;28;20084;-70
2022/09/22 10:44:43;;;;;;;1.33;1.05;;;26.10;46.60;;;;;;5011127;28;20046;-70
2022/09/22 10:47:38;;;;;;;3.17;1.02;;;26.00;44.40;;;;;;5010379;28;20044;-70
2022/09/22 10:50:35;;;;;;;2.15;1.20;;;26.00;45.20;;;;;;5009353;28;20030;-71
2022/09/22 10:53:09;;;;;;;0.90;0.90;;;25.90;49.40;;;;;;5006555;28;20095;-71
2022/09/22 10:56:14;;;;;;;1.05;1.05;;;26.00;51.40;;;;;;5006423;28;20034;-71
2022/09/22 10:58:43;;;;;;;0.95;0.95;;;26.00;52.00;;;;;;4987734;28;20042;-71
2022/09/22 11:01:18;;;;;;;0.93;0.93;;;26.10;52.40;;;;;;4977550;28;20140;-70
2022/09/22 11:04:34;;;;;;;0.80;0.80;;;26.10;52.50;;;;;;4987995;28;20094;-70
2022/09/22 11:13:21;;;;;;;1.02;0.95;;;26.10;53.20;;;;;;4929175;29;20059;-71
2022/09/22 11:16:01;;;;;;;2.40;1.15;;;26.10;53.70;;;;;;4915490;29;20131;-70
2022/09/22 11:18:42;;;;;;;1.00;1.00;;;26.00;53.60;;;;;;4928754;29;20127;-71
2022/09/22 11:21:39;;;;;;;1.25;1.00;;;26.10;53.50;;;;;;4928848;29;20528;-71
2022/09/22 11:24:46;;;;;;;1.13;1.02;;;26.00;53.60;;;;;;4926994;29;20506;-70
2022/09/22 11:27:24;;;;;;;1.20;1.00;;;25.90;53.50;;;;;;4871822;29;20423;-70
2022/09/22 11:29:53;;;;;;;1.00;1.00;;;26.00;53.90;;;;;;4873395;29;20497;-71
2022/09/22 11:32:40;;;;;;;2.72;1.65;;;26.00;53.90;;;;;;4871775;29;20045;-71
2022/09/22 11:35:33;;;;;;;3.03;1.20;;;26.00;54.00;;;;;;4854710;29;20045;-71
2022/09/22 11:38:21;;;;;;;1.58;1.10;;;25.90;53.40;;;;;;4890727;29;20044;-70
2022/09/22 11:41:07;;;;;;;1.10;1.00;;;26.10;53.70;;;;;;4907916;29;20036;-70
2022/09/22 11:43:39;;;;;;;1.75;1.30;;;26.00;53.90;;;;;;4911170;29;20425;-70
2022/09/22 11:46:17;;;;;;;2.33;1.08;;;25.90;53.50;;;;;;4931388;29;20134;-71
2022/09/22 11:48:57;;;;;;;1.25;1.10;;;25.90;53.80;;;;;;4906708;29;20127;-71
2022/09/22 11:52:04;;;;;;;0.98;0.98;;;25.90;54.20;;;;;;4930860;29;20048;-69
2022/09/22 11:54:44;;;;;;;0.90;0.90;;;25.80;54.00;;;;;;4926558;29;20129;-70
2022/09/22 11:57:15;;;;;;;1.17;0.80;;;25.80;54.30;;;;;;4917793;29;20496;-70
2022/09/22 12:00:17;;;;;;;0.88;0.88;;;25.80;54.50;;;;;;4933601;29;20387;-71
2022/09/22 12:03:03;;;;;;;6.70;1.25;;;25.90;54.20;;;;;;4918634;29;20059;-71
2022/09/22 12:05:57;;;;;;;1.17;1.08;;;25.90;54.20;;;;;;4991321;28;20057;-71
2022/09/22 12:08:31;;;;;;;1.48;0.90;;;25.90;54.20;;;;;;5013158;28;20038;-71
2022/09/22 12:10:57;;;;;;;2.97;1.00;;;26.00;54.50;;;;;;5013157;28;20037;-71
2022/09/22 12:13:26;;;;;;;2.05;1.00;;;25.90;54.10;;;;;;5021925;28;20040;-70
2022/09/22 12:16:17;;;;;;;1.02;0.90;;;26.00;54.40;;;;;;5019835;28;20042;-71
2022/09/22 12:19:05;;;;;;;1.05;0.80;;;25.90;53.80;;;;;;5002951;28;20044;-70
2022/09/22 12:22:03;;;;;;;1.55;1.00;;;26.00;54.10;;;;;;5004598;28;20030;-70
2022/09/22 12:24:30;;;;;;;2.15;1.40;;;26.00;53.90;;;;;;5021640;28;20029;-70
2022/09/22 12:26:56;;;;;;;2.15;1.75;;;26.00;53.70;;;;;;5012221;28;20406;-70
2022/09/22 12:29:26;;;;;;;1.75;1.05;;;25.90;53.10;;;;;;5014233;28;20030;-70
2022/09/22 12:31:55;;;;;;;3.95;1.35;;;25.90;52.80;;;;;;5014379;28;20033;-69
2022/09/22 12:34:40;;;;;;;3.78;1.50;;;25.80;52.50;;;;;;5014429;28;20026;-70
2022/09/22 12:37:28;;;;;;;1.45;1.17;;;25.80;52.30;;;;;;4996482;28;20121;-70
2022/09/22 12:40:00;;;;;;;3.72;1.45;;;25.90;52.10;;;;;;5004853;28;20038;-69
2022/09/22 12:42:36;;;;;;;8.30;2.43;;;25.90;52.00;;;;;;5014630;28;20026;-70
2022/09/22 12:45:05;;;;;;;2.67;1.80;;;25.80;51.80;;;;;;5014070;28;20058;-70
2022/09/22 12:47:37;;;;;;;3.20;1.88;;;25.80;51.70;;;;;;5020291;28;20489;-71
2022/09/22 12:50:32;;;;;;;3.33;1.80;;;25.80;51.60;;;;;;5012790;28;20034;-71
2022/09/22 12:53:02;;;;;;;2.95;1.70;;;25.70;51.90;;;;;;4954947;28;20400;-71
2022/09/22 12:55:37;;;;;;;2.95;2.22;;;25.60;52.10;;;;;;4956123;28;20043;-70
2022/09/22 12:58:21;;;;;;;4.97;2.45;;;25.60;52.30;;;;;;4969127;28;20693;-71
2022/09/22 13:00:49;;;;;;;3.47;2.17;;;25.60;52.50;;;;;;4962103;28;20094;-71
2022/09/22 13:03:24;;;;;;;2.40;1.95;;;25.60;52.40;;;;;;4968552;28;20062;-71
2022/09/22 13:06:02;;;;;;;3.17;1.92;;;25.60;52.40;;;;;;4968525;28;20668;-71
2022/09/22 13:08:31;;;;;;;2.03;1.83;;;25.60;52.30;;;;;;4953154;28;20027;-69
2022/09/22 13:11:03;;;;;;;1.92;1.75;;;25.50;52.60;;;;;;4952740;29;20043;-74
2022/09/22 13:13:35;;;;;;;2.90;2.05;;;25.50;52.80;;;;;;4975013;28;20037;-71
2022/09/22 13:16:24;;;;;;;2.50;1.75;;;25.40;53.00;;;;;;4966574;28;20101;-70
2022/09/22 13:18:53;;;;;;;5.60;1.33;;;25.50;53.10;;;;;;4965107;28;20042;-71
2022/09/22 13:21:24;;;;;;;1.23;0.90;;;25.60;53.10;;;;;;4965779;28;20066;-70
2022/09/22 13:23:50;;;;;;;0.93;0.80;;;25.40;53.00;;;;;;4958028;28;20062;-71
2022/09/22 13:26:21;;;;;;;1.58;1.13;;;25.40;53.00;;;;;;4957845;28;20035;-71